createdAt,value
2018-11-22T00:02:04.381Z,5.1
2018-11-22T00:05:04.475Z,5
2018-11-22T00:08:04.421Z,5
2018-11-22T00:11:04.473Z,5.1
2018-11-22T00:14:04.770Z,5.2
2018-11-22T00:17:04.431Z,5.1
2018-11-22T00:20:04.817Z,5
2018-11-22T00:23:04.619Z,5.1
2018-11-22T00:26:04.641Z,5.3
2018-11-22T00:29:04.538Z,5.2
2018-11-22T00:32:04.399Z,5.2
2018-11-22T00:35:04.557Z,5.2
2018-11-22T00:38:04.769Z,5.3
2018-11-22T00:41:04.861Z,5.2
2018-11-22T00:44:04.473Z,5
2018-11-22T00:47:04.936Z,5.2
2018-11-22T00:50:04.393Z,5.6
2018-11-22T00:53:04.527Z,5.6
2018-11-22T00:56:04.495Z,5.3
2018-11-22T00:59:04.596Z,5.2
2018-11-22T01:02:04.659Z,5.1
2018-11-22T01:05:04.863Z,5
2018-11-22T01:08:04.303Z,5.3
2018-11-22T01:11:04.418Z,5.2
2018-11-22T01:14:04.559Z,5.3
2018-11-22T01:17:04.853Z,5.4
2018-11-22T01:20:04.809Z,5.4
2018-11-22T01:23:04.914Z,5.4
2018-11-22T01:26:04.443Z,5.4
2018-11-22T01:29:04.612Z,5.4
2018-11-22T01:32:05.442Z,5.1
2018-11-22T01:35:04.785Z,5.4
2018-11-22T01:38:04.663Z,5.3
2018-11-22T01:41:04.577Z,4.9
2018-11-22T01:44:04.379Z,5.4
2018-11-22T01:47:04.463Z,5.2
2018-11-22T01:50:04.525Z,5.3
2018-11-22T01:53:04.431Z,5.4
2018-11-22T01:56:04.532Z,5.5
2018-11-22T01:59:04.298Z,5.3
2018-11-22T02:02:05.072Z,5.1
2018-11-22T02:05:04.614Z,5.2
2018-11-22T02:08:04.677Z,5.3
2018-11-22T02:11:04.947Z,5.7
2018-11-22T02:14:04.810Z,6
2018-11-22T02:17:04.363Z,5.7
2018-11-22T02:20:04.799Z,5.5
2018-11-22T02:23:04.330Z,5.5
2018-11-22T02:26:04.406Z,5.3
2018-11-22T02:29:04.525Z,5.4
2018-11-22T02:32:04.362Z,5.4
2018-11-22T02:35:04.565Z,5.9
2018-11-22T02:38:04.465Z,5.8
2018-11-22T02:41:04.394Z,5.5
2018-11-22T02:44:04.544Z,5.4
2018-11-22T02:47:04.386Z,5.5
2018-11-22T02:50:04.431Z,5.5
2018-11-22T02:53:04.810Z,5.7
2018-11-22T02:56:04.431Z,5.5
2018-11-22T02:59:04.413Z,5.3
2018-11-22T03:02:04.564Z,5.8
2018-11-22T03:05:04.678Z,5.5
2018-11-22T03:08:04.876Z,5.4
2018-11-22T03:11:04.592Z,5.4
2018-11-22T03:14:04.374Z,5.7
2018-11-22T03:17:04.448Z,5.6
2018-11-22T03:20:04.573Z,5.6
2018-11-22T03:23:04.486Z,5.7
2018-11-22T03:26:04.436Z,5.7
2018-11-22T03:29:04.817Z,5.5
2018-11-22T03:32:04.457Z,5.7
2018-11-22T03:35:04.579Z,5.8
2018-11-22T03:38:04.732Z,5.5
2018-11-22T03:41:04.466Z,5.5
2018-11-22T03:44:04.391Z,5.7
2018-11-22T03:47:04.783Z,5.6
2018-11-22T03:50:04.807Z,5.5
2018-11-22T03:53:04.825Z,5.7
2018-11-22T03:56:04.457Z,5.5
2018-11-22T03:59:04.550Z,6.1
2018-11-22T04:02:04.471Z,5.4
2018-11-22T04:05:04.388Z,5.7
2018-11-22T04:08:04.434Z,5.7
2018-11-22T04:11:04.745Z,6.1
2018-11-22T04:14:04.452Z,5.6
2018-11-22T04:17:04.654Z,5.6
2018-11-22T04:20:04.580Z,6
2018-11-22T04:23:04.296Z,6.3
2018-11-22T04:26:04.826Z,5.6
2018-11-22T04:29:04.450Z,5.6
2018-11-22T04:32:04.831Z,5.9
2018-11-22T04:35:04.460Z,6.3
2018-11-22T04:38:04.561Z,5.9
2018-11-22T04:41:04.556Z,5.7
2018-11-22T04:44:04.692Z,5.7
2018-11-22T04:47:04.219Z,5.6
2018-11-22T04:50:04.528Z,5.6
2018-11-22T04:53:04.479Z,5.6
2018-11-22T04:56:04.509Z,5.7
2018-11-22T04:59:04.250Z,5.3
2018-11-22T05:02:04.222Z,5.5
2018-11-22T05:05:04.337Z,5.2
2018-11-22T05:08:04.443Z,5.3
2018-11-22T05:11:04.667Z,5.3
2018-11-22T05:14:04.388Z,4.7
2018-11-22T05:17:04.134Z,5.3
2018-11-22T05:20:04.332Z,4.9
2018-11-22T05:23:04.353Z,5
2018-11-22T05:26:04.366Z,5.2
2018-11-22T05:29:04.398Z,5
2018-11-22T05:32:04.608Z,4.7
2018-11-22T05:35:04.238Z,4.6
2018-11-22T05:38:04.386Z,4.6
2018-11-22T05:41:04.726Z,4.9
2018-11-22T05:44:04.372Z,4.8
2018-11-22T05:47:04.432Z,5
2018-11-22T05:50:04.398Z,4.6
2018-11-22T05:53:04.342Z,5
2018-11-22T05:56:04.382Z,5
2018-11-22T05:59:04.463Z,4.9
2018-11-22T06:02:04.517Z,4.7
2018-11-22T06:05:04.361Z,4.7
2018-11-22T06:08:04.571Z,4.7
2018-11-22T06:11:04.211Z,4.9
2018-11-22T06:14:04.299Z,4.9
2018-11-22T06:17:04.195Z,5
2018-11-22T06:20:04.274Z,4.9
2018-11-22T06:23:04.809Z,4.6
2018-11-22T06:26:04.155Z,4.7
2018-11-22T06:29:04.151Z,4.9
2018-11-22T06:32:05.116Z,4.7
2018-11-22T06:35:04.346Z,4.7
2018-11-22T06:38:04.720Z,5
2018-11-22T06:41:04.381Z,4.7
2018-11-22T06:44:05.047Z,4.7
2018-11-22T06:47:04.151Z,4.6
2018-11-22T06:50:04.417Z,5.1
2018-11-22T06:53:04.855Z,4.9
2018-11-22T06:56:04.326Z,5.2
2018-11-22T06:59:05.132Z,5
2018-11-22T07:02:04.509Z,4.6
2018-11-22T07:05:04.421Z,4.7
2018-11-22T07:08:04.502Z,4.8
2018-11-22T07:11:04.426Z,4.9
2018-11-22T07:14:04.301Z,5.1
2018-11-22T07:17:04.547Z,4.9
2018-11-22T07:20:04.219Z,4.6
2018-11-22T07:23:04.604Z,5.6
2018-11-22T07:26:04.490Z,4.8
2018-11-22T07:29:04.446Z,5.2
2018-11-22T07:32:04.445Z,5
2018-11-22T07:35:04.346Z,5.1
2018-11-22T07:38:04.389Z,4.7
2018-11-22T07:41:05.263Z,4.8
2018-11-22T07:44:04.259Z,5.2
2018-11-22T07:47:04.279Z,5
2018-11-22T07:50:04.680Z,4.9
2018-11-22T07:53:04.181Z,5
2018-11-22T07:56:04.396Z,5.2
2018-11-22T07:59:04.283Z,5.1
2018-11-22T08:02:04.238Z,5.2
2018-11-22T08:05:04.305Z,5.1
2018-11-22T08:08:04.408Z,5
2018-11-22T08:11:04.238Z,5
2018-11-22T08:14:04.558Z,4.9
2018-11-22T08:17:04.213Z,5
2018-11-22T08:20:04.910Z,5
2018-11-22T08:23:04.799Z,4.9
2018-11-22T08:26:04.715Z,5
2018-11-22T08:29:04.374Z,4.8
2018-11-22T08:32:04.985Z,5.5
2018-11-22T08:35:04.222Z,4.9
2018-11-22T08:38:04.216Z,5.1
2018-11-22T08:41:04.718Z,5.3
2018-11-22T08:44:04.566Z,5.1
2018-11-22T08:47:04.490Z,4.8
2018-11-22T08:50:04.307Z,5.2
2018-11-22T08:53:04.647Z,4.7
2018-11-22T08:56:04.322Z,5
2018-11-22T08:59:04.557Z,4.9
2018-11-22T09:02:04.097Z,5.2
2018-11-22T09:05:04.571Z,5.1
2018-11-22T09:08:04.546Z,5.1
2018-11-22T09:11:04.128Z,5
2018-11-22T09:14:04.364Z,5.5
2018-11-22T09:17:04.590Z,5.2
2018-11-22T09:20:04.149Z,4.9
2018-11-22T09:23:04.240Z,5.3
2018-11-22T09:26:04.234Z,5.1
2018-11-22T09:29:04.164Z,5.1
2018-11-22T09:32:04.086Z,5.2
2018-11-22T09:35:04.484Z,5.1
2018-11-22T09:38:04.365Z,5.1
2018-11-22T09:41:04.342Z,4.8
2018-11-22T09:44:04.127Z,5.2
2018-11-22T09:47:04.304Z,5
2018-11-22T09:50:04.381Z,5.3
2018-11-22T09:53:04.090Z,5.2
2018-11-22T09:56:04.266Z,4.9
2018-11-22T09:59:04.955Z,5.2
2018-11-22T10:02:04.087Z,5.1
2018-11-22T10:05:07.486Z,4.9
2018-11-22T10:08:04.406Z,5
2018-11-22T10:11:04.382Z,5.2
2018-11-22T10:14:04.122Z,4.8
2018-11-22T10:17:05.683Z,5.4
2018-11-22T10:20:05.515Z,5
2018-11-22T10:23:04.323Z,5.3
2018-11-22T10:26:04.196Z,5.2
2018-11-22T10:29:04.310Z,5
2018-11-22T10:32:04.574Z,5
2018-11-22T10:35:05.075Z,5.3
2018-11-22T10:38:05.672Z,5.2
2018-11-22T10:41:04.058Z,5.2
2018-11-22T10:44:04.179Z,5.3
2018-11-22T10:47:04.436Z,5
2018-11-22T10:50:04.318Z,5.5
2018-11-22T10:53:04.110Z,5.5
2018-11-22T10:56:04.129Z,5
2018-11-22T10:59:04.269Z,4.8
2018-11-22T11:02:04.023Z,5.3
2018-11-22T11:05:04.177Z,5.2
2018-11-22T11:08:04.663Z,5.1
2018-11-22T11:11:04.157Z,5.1
2018-11-22T11:14:04.343Z,5
2018-11-22T11:17:04.475Z,5.3
2018-11-22T11:20:04.197Z,5
2018-11-22T11:23:05.024Z,4.9
2018-11-22T11:26:04.480Z,5.5
2018-11-22T11:29:04.625Z,5.3
2018-11-22T11:32:04.262Z,5.3
2018-11-22T11:35:04.348Z,5.1
2018-11-22T11:38:04.328Z,4.9
2018-11-22T11:41:04.645Z,5.1
2018-11-22T11:44:04.271Z,4.7
2018-11-22T11:47:04.138Z,4.8
2018-11-22T11:50:04.439Z,5
2018-11-22T11:53:04.577Z,4.8
2018-11-22T11:56:04.129Z,5
2018-11-22T11:59:04.044Z,5.1
2018-11-22T12:02:04.299Z,4.7
2018-11-22T12:05:04.275Z,5.2
2018-11-22T12:08:04.236Z,5
2018-11-22T12:11:04.791Z,5.1
2018-11-22T12:14:04.180Z,5.1
2018-11-22T12:17:04.170Z,5.3
2018-11-22T12:20:04.234Z,5.6
2018-11-22T12:23:04.039Z,4.9
2018-11-22T12:26:04.127Z,5.1
2018-11-22T12:29:04.209Z,5.6
2018-11-22T12:32:04.112Z,5.1
2018-11-22T12:35:04.180Z,5.4
2018-11-22T12:38:04.333Z,4.7
2018-11-22T12:41:04.086Z,5.1
2018-11-22T12:44:04.255Z,5
2018-11-22T12:47:04.482Z,5
2018-11-22T12:50:04.291Z,5
2018-11-22T12:53:03.963Z,5.2
2018-11-22T12:56:04.621Z,5.2
2018-11-22T12:59:04.555Z,5
2018-11-22T13:02:04.460Z,5.1
2018-11-22T13:05:05.231Z,4.9
2018-11-22T13:08:04.480Z,5
2018-11-22T13:11:04.717Z,4.7
2018-11-22T13:14:04.148Z,4.9
2018-11-22T13:17:04.266Z,5.1
2018-11-22T13:20:04.314Z,4.8
2018-11-22T13:23:04.126Z,4.9
2018-11-22T13:26:04.486Z,4.8
2018-11-22T13:29:04.271Z,4.6
2018-11-22T13:32:04.074Z,4.8
2018-11-22T13:35:04.137Z,4.9
2018-11-22T13:38:04.543Z,4.8
2018-11-22T13:41:04.094Z,4.5
2018-11-22T13:44:03.993Z,5
2018-11-22T13:47:04.500Z,4.6
2018-11-22T13:50:04.111Z,4.5
2018-11-22T13:53:04.156Z,4.8
2018-11-22T13:56:04.265Z,4.7
2018-11-22T13:59:04.173Z,4.5
2018-11-22T14:02:04.373Z,5
2018-11-22T14:05:04.117Z,4.9
2018-11-22T14:08:04.254Z,4.6
2018-11-22T14:11:04.204Z,4.4
2018-11-22T14:14:04.341Z,5.2
2018-11-22T14:17:04.219Z,4.7
2018-11-22T14:20:04.392Z,5.1
2018-11-22T14:23:04.964Z,4.6
2018-11-22T14:26:04.208Z,4.9
2018-11-22T14:29:04.294Z,4.7
2018-11-22T14:32:04.208Z,4.9
2018-11-22T14:35:04.449Z,4.5
2018-11-22T14:38:04.422Z,8.5
2018-11-22T14:41:04.141Z,6.8
2018-11-22T14:44:04.182Z,6.9
2018-11-22T14:47:04.215Z,5
2018-11-22T14:50:04.050Z,4.9
2018-11-22T14:53:04.111Z,5.5
2018-11-22T14:56:05.585Z,5.5
2018-11-22T14:59:04.455Z,5.4
2018-11-22T15:02:04.443Z,7.8
2018-11-22T15:05:04.196Z,5.3
2018-11-22T15:08:04.206Z,5.6
2018-11-22T15:11:04.261Z,5.2
2018-11-22T15:14:04.297Z,4.8
2018-11-22T15:17:04.394Z,7.7
2018-11-22T15:20:03.975Z,7.5
2018-11-22T15:23:04.089Z,5.2
2018-11-22T15:26:04.041Z,4.9
2018-11-22T15:29:03.937Z,5.2
2018-11-22T15:32:04.589Z,5
2018-11-22T15:35:03.944Z,5.1
2018-11-22T15:38:04.517Z,5
2018-11-22T15:41:04.191Z,4.9
2018-11-22T15:44:03.998Z,4.7
2018-11-22T15:47:04.082Z,4.7
2018-11-22T15:50:04.531Z,5.2
2018-11-22T15:53:04.268Z,5.2
2018-11-22T15:56:04.093Z,5
2018-11-22T15:59:04.270Z,5.2
2018-11-22T16:02:04.096Z,5
2018-11-22T16:05:04.379Z,4.8
2018-11-22T16:08:04.008Z,5
2018-11-22T16:11:03.979Z,4.9
2018-11-22T16:14:04.293Z,4.6
2018-11-22T16:17:04.148Z,4.9
2018-11-22T16:20:04.010Z,4.7
2018-11-22T16:23:04.095Z,4.9
2018-11-22T16:26:04.049Z,4.7
2018-11-22T16:29:04.886Z,4.7
2018-11-22T16:32:04.214Z,5
2018-11-22T16:35:03.992Z,4.7
2018-11-22T16:38:03.915Z,5.1
2018-11-22T16:41:04.591Z,5.3
2018-11-22T16:44:04.096Z,4.9
2018-11-22T16:47:04.158Z,4.9
2018-11-22T16:50:03.999Z,4.7
2018-11-22T16:53:04.064Z,4.8
2018-11-22T16:56:04.219Z,5.2
2018-11-22T16:59:03.917Z,4.9
2018-11-22T17:02:04.005Z,5.4
2018-11-22T17:05:04.365Z,4.9
2018-11-22T17:08:04.358Z,5
2018-11-22T17:11:04.300Z,5.3
2018-11-22T17:14:04.241Z,5.2
2018-11-22T17:17:04.040Z,5.2
2018-11-22T17:20:04.036Z,5.3
2018-11-22T17:23:04.232Z,5.3
2018-11-22T17:26:04.306Z,5.5
2018-11-22T17:29:04.416Z,5.2
2018-11-22T17:32:04.506Z,5.3
2018-11-22T17:35:03.908Z,5.5
2018-11-22T17:38:03.916Z,5.4
2018-11-22T17:41:03.919Z,5.6
2018-11-22T17:44:04.026Z,5.4
2018-11-22T17:47:04.032Z,5.6
2018-11-22T17:50:03.967Z,5.3
2018-11-22T17:53:04.259Z,5.7
2018-11-22T17:56:04.080Z,5.5
2018-11-22T17:59:03.877Z,5.7
2018-11-22T18:02:04.241Z,5.6
2018-11-22T18:05:04.390Z,5.7
2018-11-22T18:08:03.926Z,5.4
2018-11-22T18:11:04.008Z,5.7
2018-11-22T18:14:04.322Z,5.6
2018-11-22T18:17:03.928Z,5.8
2018-11-22T18:20:03.979Z,5.6
2018-11-22T18:23:04.212Z,6.6
2018-11-22T18:26:04.114Z,5.9
2018-11-22T18:29:04.053Z,5.4
2018-11-22T18:32:04.054Z,6.8
2018-11-22T18:35:04.153Z,12
2018-11-22T18:38:04.510Z,6
2018-11-22T18:41:04.107Z,11
2018-11-22T18:44:04.205Z,9.5
2018-11-22T18:47:04.206Z,9.4
2018-11-22T18:50:04.587Z,9.2
2018-11-22T18:53:04.235Z,6.9
2018-11-22T18:56:04.335Z,6.4
2018-11-22T18:59:04.036Z,8.3
2018-11-22T19:02:04.149Z,10.6
2018-11-22T19:05:03.868Z,7.8
2018-11-22T19:08:04.894Z,10.8
2018-11-22T19:11:04.154Z,11
2018-11-22T19:14:04.224Z,11.3
2018-11-22T19:17:04.542Z,11.8
2018-11-22T19:20:09.541Z,10.2
2018-11-22T19:23:03.829Z,9.8
2018-11-22T19:26:04.126Z,8.3
2018-11-22T19:29:04.047Z,9.7
2018-11-22T19:32:04.748Z,8.1
2018-11-22T19:35:03.943Z,13.3
2018-11-22T19:38:04.424Z,11.9
2018-11-22T19:41:03.860Z,8.4
2018-11-22T19:44:04.145Z,10.3
2018-11-22T19:47:05.403Z,8.4
2018-11-22T19:50:04.204Z,9.5
2018-11-22T19:53:04.104Z,8
2018-11-22T19:56:04.033Z,8.4
2018-11-22T19:59:04.086Z,8.1
2018-11-22T20:02:03.932Z,7.6
2018-11-22T20:05:03.929Z,7.7
2018-11-22T20:08:04.104Z,7.6
2018-11-22T20:11:03.957Z,7.7
2018-11-22T20:14:03.806Z,7.5
2018-11-22T20:17:03.823Z,9.2
2018-11-22T20:20:03.970Z,8
2018-11-22T20:23:03.812Z,8.9
2018-11-22T20:26:04.039Z,7.9
2018-11-22T20:29:03.930Z,7.4
2018-11-22T20:32:04.510Z,8.2
2018-11-22T20:35:04.119Z,7.6
2018-11-22T20:38:04.069Z,8.9
2018-11-22T20:41:03.953Z,7
2018-11-22T20:44:04.275Z,7.5
2018-11-22T20:47:03.970Z,11.9
2018-11-22T20:50:03.981Z,7.4
2018-11-22T20:53:04.116Z,7.1
2018-11-22T20:56:03.974Z,7.4
2018-11-22T20:59:03.913Z,7.2
2018-11-22T21:02:04.024Z,7.6
2018-11-22T21:05:03.906Z,7.1
2018-11-22T21:08:03.890Z,6.9
2018-11-22T21:11:04.117Z,7.2
2018-11-22T21:14:03.977Z,8.3
2018-11-22T21:17:04.083Z,8.2
2018-11-22T21:20:04.462Z,7.1
2018-11-22T21:23:04.274Z,6.9
2018-11-22T21:26:04.428Z,8
2018-11-22T21:29:03.882Z,7.6
2018-11-22T21:32:04.107Z,7.2
2018-11-22T21:35:04.027Z,7
2018-11-22T21:38:04.457Z,7.3
2018-11-22T21:41:03.975Z,7.5
2018-11-22T21:44:03.910Z,7.4
2018-11-22T21:47:04.076Z,7.1
2018-11-22T21:50:04.002Z,7.6
2018-11-22T21:53:03.934Z,6.9
2018-11-22T21:56:03.786Z,7.1
2018-11-22T21:59:04.107Z,7.3
2018-11-22T22:02:03.964Z,7.4
2018-11-22T22:05:04.190Z,7.3
2018-11-22T22:08:03.814Z,7.2
2018-11-22T22:11:04.033Z,6.8
2018-11-22T22:14:04.324Z,7.3
2018-11-22T22:17:03.874Z,7.1
2018-11-22T22:20:04.068Z,7.5
2018-11-22T22:23:04.270Z,7.1
2018-11-22T22:26:03.881Z,7
2018-11-22T22:29:03.929Z,7.3
2018-11-22T22:32:03.946Z,7.3
2018-11-22T22:35:04.159Z,7.7
2018-11-22T22:38:04.602Z,7.3
2018-11-22T22:41:03.841Z,7.8
2018-11-22T22:44:03.886Z,7.8
2018-11-22T22:47:04.073Z,7.4
2018-11-22T22:50:03.861Z,7.6
2018-11-22T22:53:04.165Z,7.3
2018-11-22T22:56:04.114Z,7.9
2018-11-22T22:59:03.700Z,7.7
2018-11-22T23:02:04.009Z,7.5
2018-11-22T23:05:04.568Z,8.2
2018-11-22T23:08:03.841Z,7.4
2018-11-22T23:11:03.815Z,7.5
2018-11-22T23:14:04.025Z,7.5
2018-11-22T23:17:03.861Z,7.7
2018-11-22T23:20:03.968Z,7.8
2018-11-22T23:23:04.120Z,7.3
2018-11-22T23:26:03.806Z,7.4
2018-11-22T23:29:03.868Z,7.1
2018-11-22T23:32:04.095Z,7.2
2018-11-22T23:35:03.815Z,7.5
2018-11-22T23:38:03.986Z,7
2018-11-22T23:41:03.911Z,7.5
2018-11-22T23:44:03.853Z,7.5
2018-11-22T23:47:03.895Z,7.4
2018-11-22T23:50:03.708Z,7.7
2018-11-22T23:53:04.388Z,8
2018-11-22T23:56:04.004Z,7.7
2018-11-22T23:59:04.051Z,7.4
